createdAt,value
2023-05-25T00:01:02.076Z,99758.19
2023-05-25T00:03:27.650Z,99755.63
2023-05-25T00:06:12.161Z,99761.67
2023-05-25T00:08:45.856Z,99749.73
2023-05-25T00:11:29.972Z,99752.42
2023-05-25T00:14:02.753Z,99746.50
2023-05-25T00:16:36.871Z,99749.03
2023-05-25T00:19:20.604Z,99754.23
2023-05-25T00:21:53.278Z,99751.69
2023-05-25T00:24:37.215Z,99754.35
2023-05-25T00:27:10.991Z,99741.19
2023-05-25T00:29:54.693Z,99745.52
2023-05-25T00:32:27.408Z,99739.36
2023-05-25T00:35:11.548Z,99744.45
2023-05-25T00:37:45.116Z,99746.95
2023-05-25T00:40:27.194Z,99747.69
2023-05-25T00:43:01.376Z,99744.88
2023-05-25T00:45:45.816Z,99742.94
2023-05-25T00:48:28.455Z,99741.52
2023-05-25T00:51:02.436Z,99729.83
2023-05-25T00:53:48.995Z,99731.92
2023-05-25T00:56:35.702Z,99722.80
2023-05-25T00:59:11.281Z,99721.85
2023-05-25T01:01:56.556Z,99720.56
2023-05-25T01:04:32.275Z,99711.47
2023-05-25T01:07:17.852Z,99711.93
2023-05-25T01:10:03.370Z,99711.35
2023-05-25T01:12:42.285Z,99709.98
2023-05-25T01:15:27.192Z,99705.59
2023-05-25T01:18:20.454Z,99696.64
2023-05-25T01:20:59.224Z,99689.45
2023-05-25T01:23:47.001Z,99694.84
2023-05-25T01:26:21.826Z,99687.16
2023-05-25T01:29:07.513Z,99690.88
2023-05-25T01:31:42.030Z,99684.66
2023-05-25T01:34:26.057Z,99683.74
2023-05-25T01:36:57.986Z,99684.38
2023-05-25T01:39:30.198Z,99679.50
2023-05-25T01:42:14.469Z,99689.14
2023-05-25T01:44:59.060Z,99685.25
2023-05-25T01:48:04.656Z,99679.70
2023-05-25T01:50:44.188Z,99677.08
2023-05-25T01:53:39.808Z,99689.87
2023-05-25T01:56:15.040Z,99687.41
2023-05-25T01:59:02.574Z,99697.78
2023-05-25T02:01:38.199Z,99697.88
2023-05-25T02:04:22.351Z,99713.52
2023-05-25T02:06:55.015Z,99704.20
2023-05-25T02:09:39.345Z,99706.59
2023-05-25T02:12:21.684Z,99707.16
2023-05-25T02:15:05.947Z,99708.33
2023-05-25T02:17:38.665Z,99698.05
2023-05-25T02:20:23.854Z,99715.12
2023-05-25T02:22:56.500Z,99703.71
2023-05-25T02:25:40.434Z,99706.44
2023-05-25T02:28:23.061Z,99711.64
2023-05-25T02:30:55.883Z,99711.33
2023-05-25T02:33:38.296Z,99724.08
2023-05-25T02:36:20.448Z,99727.06
2023-05-25T02:38:53.387Z,99722.86
2023-05-25T02:41:38.967Z,99730.12
2023-05-25T02:44:24.029Z,99733.63
2023-05-25T02:46:57.028Z,99732.23
2023-05-25T02:49:40.480Z,99739.22
2023-05-25T02:52:14.142Z,99734.19
2023-05-25T02:54:58.846Z,99740.48
2023-05-25T02:57:34.158Z,99733.17
2023-05-25T03:00:17.706Z,99742.51
2023-05-25T03:02:50.586Z,99730.47
2023-05-25T03:05:34.817Z,99734.58
2023-05-25T03:08:20.048Z,99745.05
2023-05-25T03:11:05.382Z,99747.71
2023-05-25T03:13:38.470Z,99740.03
2023-05-25T03:16:23.538Z,99748.63
2023-05-25T03:18:56.366Z,99744.05
2023-05-25T03:21:40.240Z,99749.92
2023-05-25T03:24:24.543Z,99746.20
2023-05-25T03:26:59.014Z,99740.85
2023-05-25T03:29:41.433Z,99759.06
2023-05-25T03:32:14.453Z,99745.38
2023-05-25T03:34:58.887Z,99757.08
2023-05-25T03:37:32.165Z,99749.45
2023-05-25T03:40:17.759Z,99750.32
2023-05-25T03:42:50.731Z,99744.53
2023-05-25T03:45:32.823Z,99737.30
2023-05-25T03:48:05.467Z,99733.80
2023-05-25T03:50:48.002Z,99734.74
2023-05-25T03:53:21.255Z,99727.27
2023-05-25T03:56:03.584Z,99737.22
2023-05-25T03:58:36.676Z,99726.32
2023-05-25T04:01:21.075Z,99734.59
2023-05-25T04:03:54.027Z,99720.88
2023-05-25T04:06:38.164Z,99735.49
2023-05-25T04:09:12.053Z,99727.44
2023-05-25T04:11:55.823Z,99724.44
2023-05-25T04:14:29.134Z,99721.08
2023-05-25T04:17:14.310Z,99719.27
2023-05-25T04:19:47.293Z,99713.16
2023-05-25T04:22:31.423Z,99714.49
2023-05-25T04:25:04.318Z,99704.09
2023-05-25T04:27:49.200Z,99715.66
2023-05-25T04:30:23.588Z,99705.92
2023-05-25T04:33:24.882Z,99712.17
2023-05-25T04:36:15.984Z,99714.23
2023-05-25T04:38:51.666Z,99710.71
2023-05-25T04:41:35.379Z,99713.58
2023-05-25T04:44:10.455Z,99707.05
2023-05-25T04:46:44.860Z,99711.97
2023-05-25T04:49:29.596Z,99713.06
2023-05-25T04:52:02.436Z,99717.43
2023-05-25T04:54:47.260Z,99713.45
2023-05-25T04:57:20.954Z,99713.92
2023-05-25T05:00:06.276Z,99721.13
2023-05-25T05:02:39.299Z,99716.05
2023-05-25T05:05:12.371Z,99728.58
2023-05-25T05:07:56.391Z,99715.88
2023-05-25T05:10:29.759Z,99705.95
2023-05-25T05:13:16.048Z,99714.22
2023-05-25T05:15:49.518Z,99718.69
2023-05-25T05:18:33.909Z,99718.56
2023-05-25T05:21:07.459Z,99711.31
2023-05-25T05:23:52.623Z,99717.91
2023-05-25T05:26:25.556Z,99714.15
2023-05-25T05:29:08.014Z,99711.84
2023-05-25T05:31:42.488Z,99713.43
2023-05-25T05:34:27.014Z,99716.21
2023-05-25T05:37:01.214Z,99708.39
2023-05-25T05:39:46.049Z,99715.86
2023-05-25T05:42:19.629Z,99713.48
2023-05-25T05:45:01.748Z,99716.24
2023-05-25T05:47:36.161Z,99707.00
2023-05-25T05:50:21.560Z,99716.60
2023-05-25T05:52:54.494Z,99705.54
2023-05-25T05:55:38.768Z,99715.62
2023-05-25T05:58:12.186Z,99718.80
2023-05-25T06:00:56.776Z,99717.25
2023-05-25T06:03:41.366Z,99726.95
2023-05-25T06:06:25.380Z,99716.37
2023-05-25T06:09:07.510Z,99719.91
2023-05-25T06:11:40.339Z,99710.55
2023-05-25T06:14:25.182Z,99713.50
2023-05-25T06:16:59.206Z,99712.89
2023-05-25T06:19:44.241Z,99718.14
2023-05-25T06:22:17.201Z,99708.31
2023-05-25T06:25:04.397Z,99712.25
2023-05-25T06:27:38.652Z,99699.07
2023-05-25T06:30:24.012Z,99712.25
2023-05-25T06:33:06.488Z,99712.73
2023-05-25T06:35:39.269Z,99701.26
2023-05-25T06:38:24.084Z,99706.50
2023-05-25T06:41:07.551Z,99713.04
2023-05-25T06:43:40.302Z,99704.13
2023-05-25T06:46:33.075Z,99706.60
2023-05-25T06:49:05.905Z,99711.36
2023-05-25T06:51:49.384Z,99701.42
2023-05-25T06:54:22.173Z,99700.31
2023-05-25T06:57:06.681Z,99708.62
2023-05-25T06:59:48.998Z,99707.47
2023-05-25T07:02:21.799Z,99710.55
2023-05-25T07:05:06.121Z,99717.20
2023-05-25T07:07:49.624Z,99705.11
2023-05-25T07:10:33.313Z,99710.31
2023-05-25T07:13:05.790Z,99714.03
2023-05-25T07:15:49.892Z,99713.50
2023-05-25T07:18:22.672Z,99721.28
2023-05-25T07:20:55.564Z,99720.12
2023-05-25T07:23:28.363Z,99716.95
2023-05-25T07:26:11.954Z,99716.91
2023-05-25T07:28:44.780Z,99718.14
2023-05-25T07:31:17.916Z,99717.13
2023-05-25T07:33:50.926Z,99716.44
2023-05-25T07:36:34.734Z,99722.34
2023-05-25T07:39:07.602Z,99717.06
2023-05-25T07:41:49.695Z,99724.28
2023-05-25T07:44:22.412Z,99709.18
2023-05-25T07:47:07.380Z,99711.41
2023-05-25T07:49:40.062Z,99705.86
2023-05-25T07:52:23.608Z,99715.62
2023-05-25T07:54:56.405Z,99717.95
2023-05-25T07:57:40.664Z,99716.73
2023-05-25T08:00:25.841Z,99712.67
2023-05-25T08:02:58.730Z,99707.84
2023-05-25T08:05:44.564Z,99698.40
2023-05-25T08:08:28.465Z,99701.77
2023-05-25T08:11:01.586Z,99703.86
2023-05-25T08:13:45.836Z,99714.55
2023-05-25T08:16:28.514Z,99714.58
2023-05-25T08:19:01.991Z,99704.17
2023-05-25T08:21:44.393Z,99715.95
2023-05-25T08:24:26.748Z,99713.23
2023-05-25T08:26:59.820Z,99706.47
2023-05-25T08:29:43.723Z,99713.73
2023-05-25T08:32:16.852Z,99711.25
2023-05-25T08:35:01.941Z,99713.37
2023-05-25T08:37:35.848Z,99708.02
2023-05-25T08:40:19.977Z,99710.81
2023-05-25T08:42:52.638Z,99706.47
2023-05-25T08:45:37.453Z,99717.12
2023-05-25T08:48:12.534Z,99713.30
2023-05-25T08:51:03.454Z,99711.06
2023-05-25T08:53:41.318Z,99707.63
2023-05-25T08:56:28.334Z,99726.13
2023-05-25T08:59:24.971Z,99712.26
2023-05-25T09:02:31.694Z,99711.73
2023-05-25T09:05:04.651Z,99706.90
2023-05-25T09:07:47.572Z,99719.11
2023-05-25T09:10:21.054Z,99702.71
2023-05-25T09:13:19.604Z,99706.34
2023-05-25T09:15:53.149Z,99708.30
2023-05-25T09:18:26.248Z,99700.31
2023-05-25T09:21:11.645Z,99705.30
2023-05-25T09:23:44.942Z,99701.34
2023-05-25T09:26:27.977Z,99715.14
2023-05-25T09:29:00.630Z,99707.99
2023-05-25T09:31:45.375Z,99716.23
2023-05-25T09:34:31.875Z,99722.55
2023-05-25T09:37:34.537Z,99717.22
2023-05-25T09:40:13.481Z,99713.97
2023-05-25T09:42:58.038Z,99722.06
2023-05-25T09:45:31.213Z,99719.42
2023-05-25T09:48:15.092Z,99721.88
2023-05-25T09:50:49.918Z,99719.63
2023-05-25T09:53:34.776Z,99714.62
2023-05-25T09:56:18.633Z,99715.58
2023-05-25T09:59:01.463Z,99719.70
2023-05-25T10:01:35.901Z,99719.68
2023-05-25T10:04:21.442Z,99719.31
2023-05-25T10:06:56.848Z,99718.44
2023-05-25T10:09:44.301Z,99714.74
2023-05-25T10:12:27.612Z,99711.94
2023-05-25T10:15:15.259Z,99714.04
2023-05-25T10:18:26.218Z,99707.81
2023-05-25T10:21:05.622Z,99711.28
2023-05-25T10:23:53.002Z,99718.00
2023-05-25T10:26:28.608Z,99706.71
2023-05-25T10:29:11.889Z,99710.20
2023-05-25T10:31:44.999Z,99705.27
2023-05-25T10:34:28.253Z,99706.09
2023-05-25T10:37:13.617Z,99710.14
2023-05-25T10:39:59.181Z,99707.62
2023-05-25T10:42:35.590Z,99698.36
2023-05-25T10:45:20.846Z,99707.00
2023-05-25T10:48:05.031Z,99702.84
2023-05-25T10:50:38.314Z,99693.98
2023-05-25T10:53:22.748Z,99702.78
2023-05-25T10:56:01.365Z,99689.63
2023-05-25T10:58:47.363Z,99699.66
2023-05-25T11:01:34.832Z,99691.33
2023-05-25T11:04:17.726Z,99693.70
2023-05-25T11:06:54.677Z,99599.83
2023-05-25T11:09:31.803Z,99658.55
2023-05-25T11:12:22.926Z,99680.39
2023-05-25T11:15:12.813Z,99674.86
2023-05-25T11:17:51.543Z,99672.85
2023-05-25T11:20:37.742Z,99676.39
2023-05-25T11:23:11.266Z,99666.11
2023-05-25T11:25:56.588Z,99670.52
2023-05-25T11:28:43.262Z,99676.62
2023-05-25T11:31:17.889Z,99658.59
2023-05-25T11:34:04.931Z,99666.28
2023-05-25T11:36:38.292Z,99656.09
2023-05-25T11:39:23.846Z,99659.94
2023-05-25T11:41:59.625Z,99657.26
2023-05-25T11:44:44.807Z,99654.91
2023-05-25T11:47:31.834Z,99654.39
2023-05-25T11:50:03.486Z,99643.48
2023-05-25T11:52:35.778Z,99649.22
2023-05-25T11:55:19.619Z,99645.85
2023-05-25T11:57:59.548Z,99644.95
2023-05-25T12:00:43.573Z,99657.59
2023-05-25T12:03:32.964Z,99651.70
2023-05-25T12:06:30.769Z,99654.59
2023-05-25T12:09:14.592Z,99650.89
2023-05-25T12:11:56.753Z,99643.84
2023-05-25T12:14:29.638Z,99646.17
2023-05-25T12:17:12.629Z,99642.33
2023-05-25T12:19:56.942Z,99639.20
2023-05-25T12:22:30.104Z,99645.16
2023-05-25T12:25:16.337Z,99639.48
2023-05-25T12:28:14.817Z,99642.16
2023-05-25T12:30:47.873Z,99635.89
2023-05-25T12:33:32.024Z,99638.95
2023-05-25T12:36:04.696Z,99631.82
2023-05-25T12:39:02.122Z,99628.88
2023-05-25T12:41:51.151Z,99625.61
2023-05-25T12:44:37.200Z,99632.95
2023-05-25T12:47:22.648Z,99625.39
2023-05-25T12:50:16.609Z,99627.75
2023-05-25T12:53:04.861Z,99631.67
2023-05-25T12:55:38.491Z,99630.72
2023-05-25T12:58:29.765Z,99608.16
2023-05-25T13:01:02.653Z,99610.63
2023-05-25T13:03:44.942Z,99611.83
2023-05-25T13:06:28.548Z,99621.81
2023-05-25T13:09:13.688Z,99627.75
2023-05-25T13:11:47.075Z,99615.90
2023-05-25T13:14:31.740Z,99619.70
2023-05-25T13:17:14.053Z,99623.47
2023-05-25T13:19:46.943Z,99633.66
2023-05-25T13:22:31.361Z,99634.50
2023-05-25T13:25:15.034Z,99640.48
2023-05-25T13:27:50.343Z,99641.83
2023-05-25T13:30:34.176Z,99645.36
2023-05-25T13:33:07.059Z,99636.20
2023-05-25T13:36:01.855Z,99645.00
2023-05-25T13:38:43.909Z,99657.34
2023-05-25T13:41:16.646Z,99640.84
2023-05-25T13:43:58.692Z,99645.67
2023-05-25T13:46:35.132Z,99639.03
2023-05-25T13:49:19.912Z,99648.97
2023-05-25T13:51:53.050Z,99645.23
2023-05-25T13:54:38.165Z,99649.16
2023-05-25T13:57:10.858Z,99644.94
2023-05-25T14:02:26.116Z,99633.63
2023-05-25T14:05:10.961Z,99639.90
2023-05-25T14:07:44.750Z,99633.12
2023-05-25T14:10:26.837Z,99635.73
2023-05-25T14:12:59.579Z,99630.13
2023-05-25T14:15:46.214Z,99633.20
2023-05-25T14:18:19.608Z,99621.40
2023-05-25T14:21:03.426Z,99625.55
2023-05-25T14:23:36.256Z,99619.98
2023-05-25T14:26:21.378Z,99616.02
2023-05-25T14:29:05.902Z,99623.06
2023-05-25T14:31:38.952Z,99603.95
2023-05-25T14:34:21.086Z,99597.03
2023-05-25T14:37:05.247Z,99592.52
2023-05-25T14:39:38.093Z,99589.22
2023-05-25T14:42:21.833Z,99587.67
2023-05-25T14:45:07.130Z,99593.89
2023-05-25T14:48:00.789Z,99588.52
2023-05-25T14:50:37.072Z,99590.56
2023-05-25T14:53:09.803Z,99579.16
2023-05-25T14:55:51.921Z,99587.16
2023-05-25T14:58:24.524Z,99580.15
2023-05-25T15:01:09.756Z,99578.58
2023-05-25T15:03:42.450Z,99568.91
2023-05-25T15:06:24.901Z,99582.91
2023-05-25T15:09:09.704Z,99584.73
2023-05-25T15:11:52.178Z,99596.01
2023-05-25T15:14:24.773Z,99581.00
2023-05-25T15:17:09.348Z,99593.02
2023-05-25T15:19:52.947Z,99588.52
2023-05-25T15:22:25.718Z,99585.20
2023-05-25T15:25:10.944Z,99592.86
2023-05-25T15:27:43.455Z,99592.55
2023-05-25T15:30:27.308Z,99594.75
2023-05-25T15:33:11.661Z,99597.27
2023-05-25T15:35:44.685Z,99595.86
2023-05-25T15:38:29.152Z,99603.95
2023-05-25T15:41:02.101Z,99589.66
2023-05-25T15:43:54.715Z,99603.91
2023-05-25T15:46:39.493Z,99595.53
2023-05-25T15:49:12.457Z,99592.81
2023-05-25T15:51:54.837Z,99593.92
2023-05-25T15:54:27.821Z,99583.85
2023-05-25T15:57:12.036Z,99586.84
2023-05-25T15:59:44.592Z,99576.13
2023-05-25T16:02:28.345Z,99584.40
2023-05-25T16:05:01.056Z,99572.70
2023-05-25T16:07:43.543Z,99566.66
2023-05-25T16:10:27.501Z,99564.27
2023-05-25T16:13:00.694Z,99560.00
2023-05-25T16:15:44.579Z,99567.92
2023-05-25T16:18:17.963Z,99562.18
2023-05-25T16:21:02.136Z,99572.49
2023-05-25T16:23:34.970Z,99558.06
2023-05-25T16:26:19.253Z,99560.48
2023-05-25T16:28:52.068Z,99553.94
2023-05-25T16:31:35.765Z,99553.55
2023-05-25T16:34:08.730Z,99546.45
2023-05-25T16:36:53.023Z,99555.80
2023-05-25T16:39:25.665Z,99555.70
2023-05-25T16:42:08.384Z,99555.81
2023-05-25T16:44:41.116Z,99552.70
2023-05-25T16:47:24.760Z,99554.19
2023-05-25T16:49:57.751Z,99553.36
2023-05-25T16:52:30.336Z,99561.55
2023-05-25T16:55:15.849Z,99567.77
2023-05-25T16:57:47.796Z,99557.64
2023-05-25T17:00:20.753Z,99561.17
2023-05-25T17:03:04.437Z,99556.63
2023-05-25T17:05:36.989Z,99552.95
2023-05-25T17:08:21.018Z,99566.36
2023-05-25T17:11:03.731Z,99561.95
2023-05-25T17:13:36.945Z,99554.16
2023-05-25T17:16:19.411Z,99562.93
2023-05-25T17:18:51.962Z,99558.58
2023-05-25T17:21:24.924Z,99553.11
2023-05-25T17:24:07.168Z,99555.55
2023-05-25T17:26:40.146Z,99547.47
2023-05-25T17:29:24.332Z,99553.59
2023-05-25T17:32:10.056Z,99555.93
2023-05-25T17:34:43.357Z,99553.36
2023-05-25T17:37:27.527Z,99559.48
2023-05-25T17:40:10.033Z,99561.65
2023-05-25T17:42:52.274Z,99567.21
2023-05-25T17:45:34.642Z,99568.78
2023-05-25T17:48:07.773Z,99563.39
2023-05-25T17:50:51.933Z,99580.20
2023-05-25T17:53:35.772Z,99576.00
2023-05-25T17:56:08.969Z,99575.93
2023-05-25T17:58:53.222Z,99581.23
2023-05-25T18:01:26.420Z,99567.95
2023-05-25T18:04:10.352Z,99578.70
2023-05-25T18:06:43.438Z,99571.64
2023-05-25T18:09:26.012Z,99569.06
2023-05-25T18:11:59.006Z,99570.70
2023-05-25T18:14:43.541Z,99571.90
2023-05-25T18:17:16.261Z,99570.00
2023-05-25T18:19:58.543Z,99569.56
2023-05-25T18:22:32.939Z,99572.41
2023-05-25T18:25:21.467Z,99574.64
2023-05-25T18:27:54.121Z,99568.31
2023-05-25T18:30:37.579Z,99573.13
2023-05-25T18:33:10.934Z,99567.50
2023-05-25T18:35:52.976Z,99572.28
2023-05-25T18:38:37.078Z,99562.99
2023-05-25T18:41:21.448Z,99564.42
2023-05-25T18:43:54.411Z,99565.00
2023-05-25T18:46:39.675Z,99569.89
2023-05-25T18:49:12.568Z,99568.05
2023-05-25T18:51:56.049Z,99565.81
2023-05-25T18:54:29.696Z,99556.11
2023-05-25T18:57:13.875Z,99567.22
2023-05-25T18:59:46.410Z,99557.38
2023-05-25T19:02:30.536Z,99567.34
2023-05-25T19:05:03.596Z,99566.87
2023-05-25T19:10:21.284Z,99565.72
2023-05-25T19:13:03.359Z,99575.56
2023-05-25T19:15:36.079Z,99572.25
2023-05-25T19:18:20.071Z,99585.38
2023-05-25T19:20:52.613Z,99579.02
2023-05-25T19:23:35.502Z,99594.05
2023-05-25T19:26:07.943Z,99594.84
2023-05-25T19:28:51.692Z,99596.45
2023-05-25T19:31:24.299Z,99588.27
2023-05-25T19:34:26.381Z,99588.03
2023-05-25T19:37:10.222Z,99589.81
2023-05-25T19:39:42.961Z,99591.55
2023-05-25T19:42:15.528Z,99583.25
2023-05-25T19:45:00.797Z,99595.62
2023-05-25T19:47:46.514Z,99585.96
2023-05-25T19:50:19.287Z,99582.43
2023-05-25T19:53:02.892Z,99582.31
2023-05-25T19:55:37.002Z,99579.77
2023-05-25T19:58:20.537Z,99583.17
2023-05-25T20:00:53.116Z,99581.84
2023-05-25T20:03:35.406Z,99587.48
2023-05-25T20:06:08.123Z,99584.33
2023-05-25T20:08:52.174Z,99588.17
2023-05-25T20:11:36.239Z,99586.04
2023-05-25T20:14:09.707Z,99583.02
2023-05-25T20:16:53.047Z,99582.53
2023-05-25T20:19:25.759Z,99581.86
2023-05-25T20:22:09.513Z,99592.70
2023-05-25T20:24:42.531Z,99584.91
2023-05-25T20:27:24.659Z,99581.77
2023-05-25T20:29:57.563Z,99578.47
2023-05-25T20:32:42.791Z,99577.95
2023-05-25T20:35:17.213Z,99577.05
2023-05-25T20:37:59.325Z,99576.55
2023-05-25T20:40:31.839Z,99572.67
2023-05-25T20:43:04.340Z,99577.38
2023-05-25T20:45:49.418Z,99590.64
2023-05-25T20:48:21.911Z,99581.41
2023-05-25T20:51:05.437Z,99577.31
2023-05-25T20:53:47.513Z,99582.87
2023-05-25T20:56:31.377Z,99584.97
2023-05-25T20:59:15.071Z,99572.80
2023-05-25T21:01:47.551Z,99569.34
2023-05-25T21:04:37.647Z,99574.98
2023-05-25T21:07:10.267Z,99572.75
2023-05-25T21:09:55.564Z,99572.74
2023-05-25T21:12:39.027Z,99572.14
2023-05-25T21:15:12.120Z,99575.94
2023-05-25T21:17:55.866Z,99571.01
2023-05-25T21:20:38.073Z,99561.63
2023-05-25T21:23:11.081Z,99565.26
2023-05-25T21:25:53.249Z,99563.67
2023-05-25T21:28:37.324Z,99568.17
2023-05-25T21:31:10.017Z,99558.61
2023-05-25T21:33:42.473Z,99551.37
2023-05-25T21:36:27.528Z,99552.48
2023-05-25T21:39:00.005Z,99547.30
2023-05-25T21:41:43.937Z,99553.84
2023-05-25T21:44:27.460Z,99557.86
2023-05-25T21:47:11.536Z,99560.16
2023-05-25T21:49:44.317Z,99554.67
2023-05-25T21:52:29.445Z,99560.38
2023-05-25T21:55:02.045Z,99549.28
2023-05-25T21:57:44.438Z,99556.79
2023-05-25T22:00:17.547Z,99549.20
2023-05-25T22:03:02.931Z,99552.99
2023-05-25T22:05:35.483Z,99554.05
2023-05-25T22:08:19.815Z,99545.41
2023-05-25T22:11:03.382Z,99550.83
2023-05-25T22:13:35.983Z,99543.35
2023-05-25T22:16:21.249Z,99550.63
2023-05-25T22:19:03.336Z,99547.52
2023-05-25T22:21:46.553Z,99538.26
2023-05-25T22:24:19.088Z,99541.70
2023-05-25T22:27:03.403Z,99536.00
2023-05-25T22:29:36.018Z,99537.16
2023-05-25T22:32:19.662Z,99547.09
2023-05-25T22:34:52.588Z,99546.33
2023-05-25T22:37:36.666Z,99545.67
2023-05-25T22:40:09.808Z,99535.14
2023-05-25T22:42:51.868Z,99542.31
2023-05-25T22:45:24.403Z,99535.84
2023-05-25T22:48:08.799Z,99535.30
2023-05-25T22:50:52.377Z,99531.71
2023-05-25T22:53:25.198Z,99526.45
2023-05-25T22:56:09.226Z,99531.95
2023-05-25T22:58:41.681Z,99518.02
2023-05-25T23:01:24.145Z,99526.55
2023-05-25T23:03:56.834Z,99522.39
2023-05-25T23:06:42.114Z,99524.55
2023-05-25T23:09:14.619Z,99513.36
2023-05-25T23:11:58.154Z,99525.02
2023-05-25T23:14:31.388Z,99511.07
2023-05-25T23:17:13.457Z,99512.38
2023-05-25T23:19:46.297Z,99514.34
2023-05-25T23:22:30.175Z,99517.33
2023-05-25T23:25:02.813Z,99520.15
2023-05-25T23:27:44.830Z,99521.43
2023-05-25T23:30:17.779Z,99526.77
2023-05-25T23:33:01.487Z,99522.64
2023-05-25T23:35:34.091Z,99522.56
2023-05-25T23:38:18.285Z,99532.66
2023-05-25T23:41:01.989Z,99536.39
2023-05-25T23:43:44.002Z,99532.30
2023-05-25T23:46:17.574Z,99544.72
2023-05-25T23:49:01.472Z,99543.13
2023-05-25T23:51:33.964Z,99545.80
2023-05-25T23:54:15.977Z,99543.39
2023-05-25T23:56:58.143Z,99550.48
2023-05-25T23:59:30.527Z,99547.23
